Brasinho — CSXI9 — position and weather

sailwx.info

Track history (hours):
 
Tides and Currents Weather Stations Pressure Air Temp Water Temp Dewpoint Dewpoint Depression Visibility Wind Speed Wind Dir Waves Ship Positions

Brasinho

Last reported at 2015-Aug-29 12:33 UTC. Time now 2015-Aug-29 12:40 UTC.
Position N 36°57' W 008°18'.

Length 57 m; draft 1.8 m.

Type: Dredging. MMSI: 263670240.

Date/timePositionNaut miles runAvg speedWind from/ knotsBaromVisibWave heightAir tempDewpointWater temp
2015-Aug-29 12:33N 36°57' W 008°18'6 5.9
2015-Aug-29 11:33N 36°56' W 008°26'6 6.0
2015-Aug-29 10:33N 36°56' W 008°33'6 6.4
2015-Aug-29 09:33N 36°56' W 008°41'6 6.4
2015-Aug-29 08:33N 36°56' W 008°49'14 5.9
2015-Aug-29 06:09N 37°01' W 009°06'4 6.6
2015-Aug-29 05:28N 37°05' W 009°07'7 7.1
2015-Aug-29 04:33N 37°12' W 009°07'7 7.1
2015-Aug-29 03:32N 37°19' W 009°08'7 6.8
2015-Aug-29 02:32N 37°26' W 009°09'7 6.8
2015-Aug-29 01:33N 37°32' W 009°10'7 6.9
2015-Aug-29 00:32N 37°39' W 009°11'7 7.2
2015-Aug-28 23:33N 37°46' W 009°12'8 7.6
2015-Aug-28 22:33N 37°54' W 009°13'8 7.8
2015-Aug-28 21:33N 38°02' W 009°14'8 7.9
2015-Aug-28 20:33N 38°09' W 009°16'8 7.9
2015-Aug-28 19:33N 38°17' W 009°17'7 7.4
2015-Aug-28 18:33N 38°25' W 009°19'6 5.9
2015-Aug-28 17:33N 38°30' W 009°20'6 5.6
2015-Aug-28 16:33N 38°36' W 009°21'6 5.6
2015-Aug-28 15:33N 38°41' W 009°17'7 7.0
2015-Aug-28 14:33N 38°41' W 009°08'3 2.7
2015-Aug-28 13:26N 38°39' W 009°06'0 0.0
2015-Aug-28 12:26N 38°39' W 009°06'0 0.0
2015-Aug-28 10:08N 38°39' W 009°06'0 0.0
2015-Aug-28 06:05N 38°39' W 009°06'0 0.0
2015-Aug-28 05:23N 38°39' W 009°06'0 0.0
2015-Aug-28 04:32N 38°39' W 009°06'0 0.0
2015-Aug-28 03:17N 38°39' W 009°06'0 0.0
2015-Aug-28 00:20N 38°39' W 009°06'0 0.0
2015-Aug-27 23:23N 38°39' W 009°06'0 0.0
2015-Aug-27 20:26N 38°39' W 009°06'0 0.0
2015-Aug-27 19:26N 38°39' W 009°06'0 0.0
2015-Aug-27 17:29N 38°39' W 009°06'0 0.0
2015-Aug-27 16:32N 38°39' W 009°06'0 0.0
2015-Aug-27 15:20N 38°39' W 009°06'0 0.0
2015-Aug-27 14:32N 38°39' W 009°06'0 0.0
2015-Aug-27 13:05N 38°39' W 009°06'0 0.0
2015-Aug-27 12:32N 38°39' W 009°06'0 0.0
2015-Aug-27 11:32N 38°39' W 009°06'0 0.0
2015-Aug-27 10:32N 38°39' W 009°06'0 0.0
2015-Aug-27 09:08N 38°39' W 009°06'0 0.0
2015-Aug-27 08:23N 38°39' W 009°06'0 0.0
2015-Aug-27 06:29N 38°39' W 009°06'0 0.0
2015-Aug-27 03:32N 38°39' W 009°06'0 0.0
2015-Aug-27 01:20N 38°39' W 009°06'0 0.0
2015-Aug-27 00:32N 38°39' W 009°06'0 0.0
2015-Aug-26 23:14N 38°39' W 009°06'0 0.0
2015-Aug-26 22:23N 38°39' W 009°06'0 0.0
2015-Aug-26 21:20N 38°39' W 009°06'0 0.0
2015-Aug-26 20:32N 38°39' W 009°06'0 0.0
2015-Aug-26 18:14N 38°39' W 009°06'0 0.0
2015-Aug-26 17:32N 38°39' W 009°06'0 0.0
2015-Aug-26 15:20N 38°39' W 009°06'0 0.0
2015-Aug-26 14:14N 38°39' W 009°06'0 0.0
2015-Aug-26 11:26N 38°39' W 009°06'0 0.0
2015-Aug-26 10:23N 38°39' W 009°06'0 0.0
2015-Aug-26 09:20N 38°39' W 009°06'0 0.0
2015-Aug-26 08:30N 38°39' W 009°06'0 0.0
2015-Aug-26 06:07N 38°39' W 009°06'0 0.0
2015-Aug-26 04:28N 38°39' W 009°06'0 0.0
2015-Aug-26 03:25N 38°39' W 009°06'0 0.0
2015-Aug-26 01:04N 38°39' W 009°06'0 0.0
2015-Aug-25 23:25N 38°39' W 009°06'0 0.0
2015-Aug-25 22:10N 38°39' W 009°06'0 0.0
2015-Aug-25 20:19N 38°39' W 009°06'0 0.0
2015-Aug-25 19:25N 38°39' W 009°06'0 0.0
2015-Aug-25 17:10N 38°39' W 009°06'0 0.0
2015-Aug-25 16:31N 38°39' W 009°06'0 0.0
2015-Aug-25 15:19N 38°39' W 009°06'0 0.0
2015-Aug-25 14:28N 38°39' W 009°06'0 0.0
2015-Aug-25 12:05N 38°39' W 009°06'0 0.0
2015-Aug-25 11:26N 38°39' W 009°06'0 0.0
2015-Aug-25 10:17N 38°39' W 009°06'0 0.0
2015-Aug-25 09:17N 38°39' W 009°06'0 0.0
2015-Aug-25 08:06N 38°39' W 009°06'0 0.0
2015-Aug-25 06:33N 38°39' W 009°06'0 0.0
2015-Aug-25 04:27N 38°39' W 009°06'0 0.0
2015-Aug-25 03:33N 38°39' W 009°06'0 0.0
2015-Aug-25 02:24N 38°39' W 009°06'0 0.0
2015-Aug-25 01:33N 38°39' W 009°06'0 0.0
2015-Aug-25 00:07N 38°39' W 009°06'0 0.0
2015-Aug-24 22:24N 38°39' W 009°06'0 0.0
2015-Aug-24 21:32N 38°39' W 009°06'0 0.0
2015-Aug-24 20:33N 38°39' W 009°06'0 0.0
2015-Aug-24 19:31N 38°39' W 009°06'0 0.0
2015-Aug-24 17:33N 38°39' W 009°06'  
Track history (hours):
 
Tides and Currents Weather Stations Pressure Air Temp Water Temp Dewpoint Dewpoint Depression Visibility Wind Speed Wind Dir Waves Ship Positions

Brasinho

Last reported at 2015-Aug-29 12:33 UTC. Time now 2015-Aug-29 12:40 UTC.
Position N 36°57' W 008°18'.

Length 57 m; draft 1.8 m.

Type: Dredging. MMSI: 263670240.

Date/timePositionNaut miles runAvg speedWind from/ knotsBaromVisibWave heightAir tempDewpointWater temp
2015-Aug-29 12:33N 36°57' W 008°18'6 5.9
2015-Aug-29 11:33N 36°56' W 008°26'6 6.0
2015-Aug-29 10:33N 36°56' W 008°33'6 6.4
2015-Aug-29 09:33N 36°56' W 008°41'6 6.4
2015-Aug-29 08:33N 36°56' W 008°49'14 5.9
2015-Aug-29 06:09N 37°01' W 009°06'4 6.6
2015-Aug-29 05:28N 37°05' W 009°07'7 7.1
2015-Aug-29 04:33N 37°12' W 009°07'7 7.1
2015-Aug-29 03:32N 37°19' W 009°08'7 6.8
2015-Aug-29 02:32N 37°26' W 009°09'7 6.8
2015-Aug-29 01:33N 37°32' W 009°10'7 6.9
2015-Aug-29 00:32N 37°39' W 009°11'7 7.2
2015-Aug-28 23:33N 37°46' W 009°12'8 7.6
2015-Aug-28 22:33N 37°54' W 009°13'8 7.8
2015-Aug-28 21:33N 38°02' W 009°14'8 7.9
2015-Aug-28 20:33N 38°09' W 009°16'8 7.9
2015-Aug-28 19:33N 38°17' W 009°17'7 7.4
2015-Aug-28 18:33N 38°25' W 009°19'6 5.9
2015-Aug-28 17:33N 38°30' W 009°20'6 5.6
2015-Aug-28 16:33N 38°36' W 009°21'6 5.6
2015-Aug-28 15:33N 38°41' W 009°17'7 7.0
2015-Aug-28 14:33N 38°41' W 009°08'3 2.7
2015-Aug-28 13:26N 38°39' W 009°06'0 0.0
2015-Aug-28 12:26N 38°39' W 009°06'0 0.0
2015-Aug-28 10:08N 38°39' W 009°06'0 0.0
2015-Aug-28 06:05N 38°39' W 009°06'0 0.0
2015-Aug-28 05:23N 38°39' W 009°06'0 0.0
2015-Aug-28 04:32N 38°39' W 009°06'0 0.0
2015-Aug-28 03:17N 38°39' W 009°06'0 0.0
2015-Aug-28 00:20N 38°39' W 009°06'0 0.0
2015-Aug-27 23:23N 38°39' W 009°06'0 0.0
2015-Aug-27 20:26N 38°39' W 009°06'0 0.0
2015-Aug-27 19:26N 38°39' W 009°06'0 0.0
2015-Aug-27 17:29N 38°39' W 009°06'0 0.0
2015-Aug-27 16:32N 38°39' W 009°06'0 0.0
2015-Aug-27 15:20N 38°39' W 009°06'0 0.0
2015-Aug-27 14:32N 38°39' W 009°06'0 0.0
2015-Aug-27 13:05N 38°39' W 009°06'0 0.0
2015-Aug-27 12:32N 38°39' W 009°06'0 0.0
2015-Aug-27 11:32N 38°39' W 009°06'0 0.0
2015-Aug-27 10:32N 38°39' W 009°06'0 0.0
2015-Aug-27 09:08N 38°39' W 009°06'0 0.0
2015-Aug-27 08:23N 38°39' W 009°06'0 0.0
2015-Aug-27 06:29N 38°39' W 009°06'0 0.0
2015-Aug-27 03:32N 38°39' W 009°06'0 0.0
2015-Aug-27 01:20N 38°39' W 009°06'0 0.0
2015-Aug-27 00:32N 38°39' W 009°06'0 0.0
2015-Aug-26 23:14N 38°39' W 009°06'0 0.0
2015-Aug-26 22:23N 38°39' W 009°06'0 0.0
2015-Aug-26 21:20N 38°39' W 009°06'0 0.0
2015-Aug-26 20:32N 38°39' W 009°06'0 0.0
2015-Aug-26 18:14N 38°39' W 009°06'0 0.0
2015-Aug-26 17:32N 38°39' W 009°06'0 0.0
2015-Aug-26 15:20N 38°39' W 009°06'0 0.0
2015-Aug-26 14:14N 38°39' W 009°06'0 0.0
2015-Aug-26 11:26N 38°39' W 009°06'0 0.0
2015-Aug-26 10:23N 38°39' W 009°06'0 0.0
2015-Aug-26 09:20N 38°39' W 009°06'0 0.0
2015-Aug-26 08:30N 38°39' W 009°06'0 0.0
2015-Aug-26 06:07N 38°39' W 009°06'0 0.0
2015-Aug-26 04:28N 38°39' W 009°06'0 0.0
2015-Aug-26 03:25N 38°39' W 009°06'0 0.0
2015-Aug-26 01:04N 38°39' W 009°06'0 0.0
2015-Aug-25 23:25N 38°39' W 009°06'0 0.0
2015-Aug-25 22:10N 38°39' W 009°06'0 0.0
2015-Aug-25 20:19N 38°39' W 009°06'0 0.0
2015-Aug-25 19:25N 38°39' W 009°06'0 0.0
2015-Aug-25 17:10N 38°39' W 009°06'0 0.0
2015-Aug-25 16:31N 38°39' W 009°06'0 0.0
2015-Aug-25 15:19N 38°39' W 009°06'0 0.0
2015-Aug-25 14:28N 38°39' W 009°06'0 0.0
2015-Aug-25 12:05N 38°39' W 009°06'0 0.0
2015-Aug-25 11:26N 38°39' W 009°06'0 0.0
2015-Aug-25 10:17N 38°39' W 009°06'0 0.0
2015-Aug-25 09:17N 38°39' W 009°06'0 0.0
2015-Aug-25 08:06N 38°39' W 009°06'0 0.0
2015-Aug-25 06:33N 38°39' W 009°06'0 0.0
2015-Aug-25 04:27N 38°39' W 009°06'0 0.0
2015-Aug-25 03:33N 38°39' W 009°06'0 0.0
2015-Aug-25 02:24N 38°39' W 009°06'0 0.0
2015-Aug-25 01:33N 38°39' W 009°06'0 0.0
2015-Aug-25 00:07N 38°39' W 009°06'0 0.0
2015-Aug-24 22:24N 38°39' W 009°06'0 0.0
2015-Aug-24 21:32N 38°39' W 009°06'0 0.0
2015-Aug-24 20:33N 38°39' W 009°06'0 0.0
2015-Aug-24 19:31N 38°39' W 009°06'0 0.0
2015-Aug-24 17:33N 38°39' W 009°06'  

Dump ship's entire track history